Terminal Aerodrome Forecast
Issued by NWS Northern Indiana

Home | Current Version | Previous Version | Text Only | Print | Product List | Glossary On
Versions: 1 2 3 4 5 6 7 8 9 10 11 12
000
FTUS43 KIWX 030540
TAFFWA
TAF
KFWA 030540Z 0306/0406 22004KT P6SM FEW050 SCT250
      TEMPO 0309/0312 5SM BR
     FM032000 24008KT P6SM VCSH BKN040 PROB30 0321/0401 5SM TSRA
      BKN040CB
     FM040100 21005KT P6SM VCSH BKN040=

USA.gov is the U.S. government's official web portal to all federal, state and local government web resources and services.